Time;durP1;ratioP1;P1;durP2;ratioP2;P2;SDS_P1;SDS_P2;PMS_P1;PMS_P2;Temp;Humidity;BMP_temperature;BMP_pressure;BME280_temperature;BME280_humidity;BME280_pressure;Samples;Min_cycle;Max_cycle;Signal;HPM_P1;HPM_P2
2023/12/18 00:01:49;;;;;;;;;;;;;;;14.39;77.80;101741.50;7353824;19;20388;-65
2023/12/18 00:04:15;;;;;;;;;;;;;;;14.38;78.13;101739.78;7346928;19;19915;-65
2023/12/18 00:06:40;;;;;;;;;;;;;;;14.40;78.29;101748.53;7351173;19;19932;-65
2023/12/18 00:09:05;;;;;;;;;;;;;;;14.40;78.08;101743.25;7347842;19;19925;-64
2023/12/18 00:11:31;;;;;;;;;;;;;;;14.42;78.04;101739.69;7350062;19;19915;-65
2023/12/18 00:13:56;;;;;;;;;;;;;;;14.43;77.99;101743.19;7360388;19;19922;-65
2023/12/18 00:16:21;;;;;;;;;;;;;;;14.44;77.80;101739.66;7359120;19;20448;-65
2023/12/18 00:18:46;;;;;;;;;;;;;;;14.43;78.14;101743.19;7358025;19;19929;-65
2023/12/18 00:21:13;;;;;;;;;;;;;;;14.43;78.33;101753.69;7353585;19;19918;-65
2023/12/18 00:23:38;;;;;;;;;;;;;;;14.44;78.27;101740.50;7359011;19;20316;-65
2023/12/18 00:26:03;;;;;;;;;;;;;;;14.45;78.29;101744.03;7350797;19;19942;-65
2023/12/18 00:28:28;;;;;;;;;;;;;;;14.45;78.29;101723.88;7361588;19;19935;-65
2023/12/18 00:30:54;;;;;;;;;;;;;;;14.46;77.74;101719.47;7360650;19;19923;-65
2023/12/18 00:33:19;;;;;;;;;;;;;;;14.48;78.13;101720.31;7362736;19;19907;-65
2023/12/18 00:35:44;;;;;;;;;;;;;;;14.47;77.76;101718.56;7367437;19;20390;-65
2023/12/18 00:38:09;;;;;;;;;;;;;;;14.47;78.15;101723.81;7362320;19;19919;-65
2023/12/18 00:40:35;;;;;;;;;;;;;;;14.48;77.74;101720.31;7359196;19;19918;-65
2023/12/18 00:43:00;;;;;;;;;;;;;;;14.49;78.20;101719.41;7359523;19;19999;-65
2023/12/18 00:45:25;;;;;;;;;;;;;;;14.46;77.63;101717.72;7358783;19;19964;-65
2023/12/18 00:47:51;;;;;;;;;;;;;;;14.46;77.66;101725.59;7358254;19;19923;-65
2023/12/18 00:50:16;;;;;;;;;;;;;;;14.46;77.55;101717.72;7354483;19;20607;-65
2023/12/18 00:52:42;;;;;;;;;;;;;;;14.46;77.66;101712.44;7358468;19;20396;-65
2023/12/18 00:55:07;;;;;;;;;;;;;;;14.46;78.09;101711.59;7359153;19;19945;-65
2023/12/18 00:57:32;;;;;;;;;;;;;;;14.44;77.99;101718.63;7359968;19;19930;-65
2023/12/18 00:59:58;;;;;;;;;;;;;;;14.45;78.23;101726.50;7357357;19;19915;-65
2023/12/18 01:02:23;;;;;;;;;;;;;;;14.46;77.81;101716.84;7357831;19;19926;-64
2023/12/18 01:04:48;;;;;;;;;;;;;;;14.46;78.00;101722.09;7359385;19;19922;-65
2023/12/18 01:07:13;;;;;;;;;;;;;;;14.47;77.81;101697.53;7352739;19;19914;-65
2023/12/18 01:09:39;;;;;;;;;;;;;;;14.47;78.23;101698.44;7359717;19;20800;-65
2023/12/18 01:12:04;;;;;;;;;;;;;;;14.50;78.22;101700.16;7356603;19;19923;-65
2023/12/18 01:14:29;;;;;;;;;;;;;;;14.51;78.04;101696.59;7359884;19;19922;-65
2023/12/18 01:16:55;;;;;;;;;;;;;;;14.46;78.28;101678.28;7359714;19;19929;-65
2023/12/18 01:19:20;;;;;;;;;;;;;;;14.52;77.99;101682.56;7357346;19;19939;-65
2023/12/18 01:21:46;;;;;;;;;;;;;;;14.55;77.91;101687.75;7352631;19;19947;-65
2023/12/18 01:24:11;;;;;;;;;;;;;;;14.56;77.93;101692.13;7357759;19;19998;-65
2023/12/18 01:26:36;;;;;;;;;;;;;;;14.58;78.16;101685.03;7357777;19;19918;-65
2023/12/18 01:29:02;;;;;;;;;;;;;;;14.59;78.26;101707.78;7351425;19;19914;-65
2023/12/18 01:31:27;;;;;;;;;;;;;;;14.60;78.33;101696.41;7352559;19;19922;-65
2023/12/18 01:33:53;;;;;;;;;;;;;;;14.61;78.17;101684.97;7332694;19;19947;-65
2023/12/18 01:36:18;;;;;;;;;;;;;;;14.63;78.28;101684.94;7352822;19;19918;-65
2023/12/18 01:38:43;;;;;;;;;;;;;;;14.64;78.10;101671.75;7360331;19;19919;-65
2023/12/18 01:41:09;;;;;;;;;;;;;;;14.64;77.67;101663.84;7358461;19;19918;-65
2023/12/18 01:43:34;;;;;;;;;;;;;;;14.66;78.05;101671.72;7356618;19;19961;-65
2023/12/18 01:46:00;;;;;;;;;;;;;;;14.66;78.11;101666.47;7363944;19;19946;-65
2023/12/18 01:48:26;;;;;;;;;;;;;;;14.67;78.15;101670.81;7357887;19;19915;-64
2023/12/18 01:50:53;;;;;;;;;;;;;;;14.68;78.03;101664.66;7355530;19;19947;-65
2023/12/18 01:53:18;;;;;;;;;;;;;;;14.67;77.99;101662.94;7357205;19;19919;-65
2023/12/18 01:55:44;;;;;;;;;;;;;;;14.68;77.70;101673.41;7361508;19;19955;-65
2023/12/18 01:58:10;;;;;;;;;;;;;;;14.70;77.99;101674.25;7352912;19;20401;-65
2023/12/18 02:00:35;;;;;;;;;;;;;;;14.70;77.99;101666.38;7358897;19;19923;-66
2023/12/18 02:03:01;;;;;;;;;;;;;;;14.71;77.67;101665.47;7351140;19;20452;-65
2023/12/18 02:05:26;;;;;;;;;;;;;;;14.73;77.99;101657.53;7359385;19;19922;-65
2023/12/18 02:07:51;;;;;;;;;;;;;;;14.75;77.81;101653.06;7365650;19;20643;-64
2023/12/18 02:10:17;;;;;;;;;;;;;;;14.73;77.75;101653.13;7358556;19;19947;-65
2023/12/18 02:12:42;;;;;;;;;;;;;;;14.75;77.64;101659.22;7357662;19;19938;-65
2023/12/18 02:15:07;;;;;;;;;;;;;;;14.75;77.53;101640.81;7353068;19;20692;-65
2023/12/18 02:17:33;;;;;;;;;;;;;;;14.74;77.69;101649.59;7357864;19;20008;-65
2023/12/18 02:20:05;;;;;;;;;;;;;;;14.76;77.89;101645.16;7353889;19;19919;-65
2023/12/18 02:22:50;;;;;;;;;;;;;;;14.78;77.41;101640.72;7360251;19;20043;-65
2023/12/18 02:25:16;;;;;;;;;;;;;;;14.77;77.57;101633.75;7361373;19;19930;-65
2023/12/18 02:27:43;;;;;;;;;;;;;;;14.79;77.78;101634.56;7357917;19;19915;-65
2023/12/18 02:30:12;;;;;;;;;;;;;;;14.79;77.55;101626.66;7361968;19;20573;-65
2023/12/18 02:32:38;;;;;;;;;;;;;;;14.80;77.55;101627.56;7359071;19;19946;-65
2023/12/18 02:35:04;;;;;;;;;;;;;;;14.81;77.28;101628.41;7354573;19;20885;-65
2023/12/18 02:37:29;;;;;;;;;;;;;;;14.82;77.52;101622.25;7354758;19;20754;-65
2023/12/18 02:39:55;;;;;;;;;;;;;;;14.83;77.68;101618.72;7357135;19;20327;-65
2023/12/18 02:42:20;;;;;;;;;;;;;;;14.82;77.34;101615.22;7361893;19;19948;-65
2023/12/18 02:44:45;;;;;;;;;;;;;;;14.83;77.27;101613.47;7357431;19;19925;-65
2023/12/18 02:47:10;;;;;;;;;;;;;;;14.85;77.40;101614.25;7356396;19;19919;-65
2023/12/18 02:49:36;;;;;;;;;;;;;;;14.85;77.19;101619.53;7354021;19;19923;-65
2023/12/18 02:52:01;;;;;;;;;;;;;;;14.86;77.29;101621.28;7351904;19;19964;-65
2023/12/18 02:54:26;;;;;;;;;;;;;;;14.85;77.22;101619.53;7357004;19;19926;-65
2023/12/18 02:56:51;;;;;;;;;;;;;;;14.86;77.28;101626.53;7358331;19;19943;-65
2023/12/18 02:59:17;;;;;;;;;;;;;;;14.87;77.47;101633.53;7358451;19;20356;-65
2023/12/18 03:01:42;;;;;;;;;;;;;;;14.87;77.06;101633.53;7361072;19;19915;-66
2023/12/18 03:04:07;;;;;;;;;;;;;;;14.87;77.37;101633.53;7361958;19;20011;-66
2023/12/18 03:06:32;;;;;;;;;;;;;;;14.88;77.05;101627.34;7357374;19;19936;-65
2023/12/18 03:08:58;;;;;;;;;;;;;;;14.89;76.95;101636.97;7358152;19;20663;-65
2023/12/18 03:11:23;;;;;;;;;;;;;;;14.90;77.43;101628.16;7359775;19;19936;-65
2023/12/18 03:13:48;;;;;;;;;;;;;;;14.90;77.37;101638.69;7359028;19;19915;-65
2023/12/18 03:16:14;;;;;;;;;;;;;;;14.92;77.15;101615.84;7357797;19;19915;-65
2023/12/18 03:18:39;;;;;;;;;;;;;;;14.91;76.85;101615.00;7361153;19;20018;-66
2023/12/18 03:21:08;;;;;;;;;;;;;;;14.92;77.29;101615.84;7356512;19;20325;-65
2023/12/18 03:23:33;;;;;;;;;;;;;;;14.92;77.04;101610.59;7362713;19;20626;-66
2023/12/18 03:25:59;;;;;;;;;;;;;;;14.92;77.27;101610.59;7359749;19;19936;-65
2023/12/18 03:28:24;;;;;;;;;;;;;;;14.92;76.96;101594.81;7360931;19;20325;-65
2023/12/18 03:30:49;;;;;;;;;;;;;;;14.94;76.73;101608.78;7359617;19;20546;-65
2023/12/18 03:33:14;;;;;;;;;;;;;;;14.94;76.81;101590.38;7362839;19;19914;-65
2023/12/18 03:35:40;;;;;;;;;;;;;;;14.93;77.07;101583.38;7360047;19;19927;-66
2023/12/18 03:38:05;;;;;;;;;;;;;;;14.95;76.72;101586.81;7356336;19;20335;-65
2023/12/18 03:40:30;;;;;;;;;;;;;;;14.94;76.69;101585.09;7364749;19;19923;-65
2023/12/18 03:42:55;;;;;;;;;;;;;;;14.94;76.95;101571.94;7355156;19;19922;-66
2023/12/18 03:45:21;;;;;;;;;;;;;;;14.93;76.69;101586.00;7359780;19;20495;-65
2023/12/18 03:47:46;;;;;;;;;;;;;;;14.93;77.05;101581.63;7358044;19;19957;-65
2023/12/18 03:50:11;;;;;;;;;;;;;;;14.94;77.16;101578.06;7363608;19;19944;-66
2023/12/18 03:52:36;;;;;;;;;;;;;;;14.94;76.81;101585.09;7354824;19;19933;-66
2023/12/18 03:55:02;;;;;;;;;;;;;;;14.95;77.11;101581.56;7361395;19;19971;-65
2023/12/18 03:57:27;;;;;;;;;;;;;;;14.94;76.92;101571.94;7370996;19;19935;-65
2023/12/18 03:59:52;;;;;;;;;;;;;;;14.94;76.59;101556.16;7365804;19;19915;-65
2023/12/18 04:02:17;;;;;;;;;;;;;;;14.95;76.91;101563.16;7363002;19;19922;-65
2023/12/18 04:04:43;;;;;;;;;;;;;;;14.94;76.98;101566.69;7361402;19;19922;-65
2023/12/18 04:07:08;;;;;;;;;;;;;;;14.94;76.69;101566.69;7364309;19;19926;-65
2023/12/18 04:09:36;;;;;;;;;;;;;;;14.95;76.78;101557.91;7361067;19;19915;-65
2023/12/18 04:12:02;;;;;;;;;;;;;;;14.95;76.80;101550.00;7362161;19;19930;-66
2023/12/18 04:14:27;;;;;;;;;;;;;;;14.96;76.67;101555.25;7360525;19;21038;-65
2023/12/18 04:16:52;;;;;;;;;;;;;;;14.97;76.99;101556.09;7359513;19;19948;-65
2023/12/18 04:19:17;;;;;;;;;;;;;;;14.96;77.02;101555.25;7323626;19;19911;-66
2023/12/18 04:21:43;;;;;;;;;;;;;;;14.98;76.79;101542.03;7363591;19;20533;-66
2023/12/18 04:24:08;;;;;;;;;;;;;;;14.96;76.83;101539.47;7362091;19;19919;-66
2023/12/18 04:26:33;;;;;;;;;;;;;;;14.97;76.73;101529.81;7358612;19;19915;-65
2023/12/18 04:28:58;;;;;;;;;;;;;;;14.96;76.65;101538.59;7360753;19;19926;-66
2023/12/18 04:31:24;;;;;;;;;;;;;;;14.96;76.30;101539.47;7360994;19;20706;-66
2023/12/18 04:33:49;;;;;;;;;;;;;;;14.96;76.63;101549.13;7360088;19;19955;-65
2023/12/18 04:36:14;;;;;;;;;;;;;;;14.95;76.28;101542.13;7358200;19;19923;-66
2023/12/18 04:38:40;;;;;;;;;;;;;;;14.93;76.31;101555.31;7361932;19;19926;-65
2023/12/18 04:41:05;;;;;;;;;;;;;;;14.93;76.35;101554.47;7362029;19;19914;-65
2023/12/18 04:43:31;;;;;;;;;;;;;;;14.93;76.41;101555.31;7360974;19;19925;-65
2023/12/18 04:45:58;;;;;;;;;;;;;;;14.93;76.81;101559.72;7365449;19;19919;-66
2023/12/18 04:48:23;;;;;;;;;;;;;;;14.92;76.75;101553.59;7351290;19;19938;-65
2023/12/18 04:50:49;;;;;;;;;;;;;;;14.93;76.85;101565.84;7362697;19;20025;-66
2023/12/18 04:53:14;;;;;;;;;;;;;;;14.95;76.75;101555.25;7357785;19;19919;-65
2023/12/18 04:55:39;;;;;;;;;;;;;;;14.95;77.04;101557.91;7359514;19;19957;-65
2023/12/18 04:58:05;;;;;;;;;;;;;;;14.96;76.98;101562.28;7361192;19;19920;-65
2023/12/18 05:00:30;;;;;;;;;;;;;;;14.96;76.63;101542.09;7358977;19;20340;-66
2023/12/18 05:02:55;;;;;;;;;;;;;;;14.98;76.39;101547.31;7368480;19;19914;-66
2023/12/18 05:05:20;;;;;;;;;;;;;;;14.98;76.78;101545.53;7368236;19;19923;-65
2023/12/18 05:07:46;;;;;;;;;;;;;;;14.99;76.58;101549.03;7365628;19;19914;-66
2023/12/18 05:10:11;;;;;;;;;;;;;;;15.00;76.65;101540.22;7366487;19;20024;-66
2023/12/18 05:12:36;;;;;;;;;;;;;;;15.01;76.81;101547.22;7364235;19;20340;-65
2023/12/18 05:15:01;;;;;;;;;;;;;;;15.01;76.73;101542.81;7367565;19;19922;-65
2023/12/18 05:17:27;;;;;;;;;;;;;;;15.02;76.59;101533.16;7369965;19;19921;-65
2023/12/18 05:19:52;;;;;;;;;;;;;;;15.05;76.85;101540.94;7373242;19;19929;-66
2023/12/18 05:22:17;;;;;;;;;;;;;;;15.05;76.39;101548.84;7367412;19;19935;-65
2023/12/18 05:24:42;;;;;;;;;;;;;;;15.07;76.66;101540.94;7364599;19;20629;-65
2023/12/18 05:27:08;;;;;;;;;;;;;;;15.08;76.66;101548.78;7366556;19;19910;-66
2023/12/18 05:29:33;;;;;;;;;;;;;;;15.10;76.34;101557.47;7368045;19;19940;-66
2023/12/18 05:31:58;;;;;;;;;;;;;;;15.10;76.50;101549.56;7364152;19;19919;-66
2023/12/18 05:34:23;;;;;;;;;;;;;;;15.11;76.50;101539.94;7365571;19;19926;-65
2023/12/18 05:36:49;;;;;;;;;;;;;;;15.12;76.50;101539.91;7367796;19;19925;-65
2023/12/18 05:39:14;;;;;;;;;;;;;;;15.12;76.45;101528.50;7367736;19;20400;-66
2023/12/18 05:41:39;;;;;;;;;;;;;;;15.14;76.50;101537.22;7360257;19;19918;-66
2023/12/18 05:44:04;;;;;;;;;;;;;;;15.13;76.10;101525.81;7362579;19;19924;-66
2023/12/18 05:46:30;;;;;;;;;;;;;;;15.13;76.18;101522.34;7365088;19;19993;-66
2023/12/18 05:48:55;;;;;;;;;;;;;;;15.14;76.12;101527.56;7364841;19;19994;-66
2023/12/18 05:51:21;;;;;;;;;;;;;;;15.15;76.10;101529.25;7360537;19;19959;-65
2023/12/18 05:53:46;;;;;;;;;;;;;;;15.14;76.28;101524.91;7363137;19;19919;-66
2023/12/18 05:56:11;;;;;;;;;;;;;;;15.15;76.42;101534.53;7366135;19;19925;-66
2023/12/18 05:58:37;;;;;;;;;;;;;;;15.17;76.13;101537.13;7364934;19;20497;-66
2023/12/18 06:01:02;;;;;;;;;;;;;;;15.16;76.03;101538.91;7366250;19;19950;-66
2023/12/18 06:03:27;;;;;;;;;;;;;;;15.17;76.36;101526.63;7365540;19;19925;-66
2023/12/18 06:05:52;;;;;;;;;;;;;;;15.16;76.40;101541.53;7365952;19;19958;-66
2023/12/18 06:08:18;;;;;;;;;;;;;;;15.16;75.86;101546.81;7362590;19;19936;-65
2023/12/18 06:10:43;;;;;;;;;;;;;;;15.17;76.23;101540.63;7363371;19;19943;-66
2023/12/18 06:13:08;;;;;;;;;;;;;;;15.18;75.90;101539.72;7368277;19;20318;-65
2023/12/18 06:15:33;;;;;;;;;;;;;;;15.19;75.89;101537.94;7363127;19;19931;-66
2023/12/18 06:17:59;;;;;;;;;;;;;;;15.19;76.04;101546.69;7366104;19;20384;-66
2023/12/18 06:20:24;;;;;;;;;;;;;;;15.18;75.83;101539.72;7363753;19;19923;-66
2023/12/18 06:22:49;;;;;;;;;;;;;;;15.19;76.15;101536.16;7366349;19;19918;-66
2023/12/18 06:25:14;;;;;;;;;;;;;;;15.19;75.80;101543.22;7361801;19;20307;-66
2023/12/18 06:27:42;;;;;;;;;;;;;;;15.20;75.75;101537.88;7356819;19;20266;-65
2023/12/18 06:30:08;;;;;;;;;;;;;;;15.15;75.93;101542.41;7366232;19;19936;-66
2023/12/18 06:32:33;;;;;;;;;;;;;;;15.21;75.88;101544.03;7363458;19;19927;-65
2023/12/18 06:34:58;;;;;;;;;;;;;;;15.21;76.17;101542.28;7370014;19;20384;-66
2023/12/18 06:37:24;;;;;;;;;;;;;;;15.21;76.21;101534.38;7360096;19;19915;-66
2023/12/18 06:39:49;;;;;;;;;;;;;;;15.22;75.83;101549.25;7365417;19;19950;-66
2023/12/18 06:42:14;;;;;;;;;;;;;;;15.23;75.92;101543.06;7364646;19;20029;-66
2023/12/18 06:44:40;;;;;;;;;;;;;;;15.23;75.94;101548.34;7360804;19;20645;-66
2023/12/18 06:47:05;;;;;;;;;;;;;;;15.23;76.02;101556.22;7362376;19;20422;-66
2023/12/18 06:49:30;;;;;;;;;;;;;;;15.25;75.77;101548.28;7363104;19;19932;-66
2023/12/18 06:51:55;;;;;;;;;;;;;;;15.23;75.51;101537.81;7356283;19;19933;-65
2023/12/18 06:54:21;;;;;;;;;;;;;;;15.23;75.53;101547.47;7361199;19;19919;-66
2023/12/18 06:56:46;;;;;;;;;;;;;;;15.23;76.01;101548.34;7362291;19;19923;-66
2023/12/18 06:59:11;;;;;;;;;;;;;;;15.23;75.91;101558.88;7362116;19;19919;-66
2023/12/18 07:01:37;;;;;;;;;;;;;;;15.24;75.68;101549.19;7366187;19;20679;-65
2023/12/18 07:04:05;;;;;;;;;;;;;;;15.25;75.52;101550.91;7364132;19;20334;-66
2023/12/18 07:06:32;;;;;;;;;;;;;;;15.25;75.76;101550.91;7356715;19;20342;-66
2023/12/18 07:08:57;;;;;;;;;;;;;;;15.24;75.67;101565.84;7365442;19;20253;-67
2023/12/18 07:11:23;;;;;;;;;;;;;;;15.24;75.50;101565.84;7362624;19;19930;-66
2023/12/18 07:13:48;;;;;;;;;;;;;;;15.24;75.45;101560.59;7363787;19;19937;-66
2023/12/18 07:16:20;;;;;;;;;;;;;;;15.24;75.54;101555.31;7356065;19;19919;-66
2023/12/18 07:18:45;;;;;;;;;;;;;;;15.23;75.42;101568.53;7363287;19;19965;-66
2023/12/18 07:21:10;;;;;;;;;;;;;;;15.20;75.72;101566.84;7361421;19;19928;-66
2023/12/18 07:23:36;;;;;;;;;;;;;;;15.19;75.40;101559.84;7361078;19;19922;-65
2023/12/18 07:26:02;;;;;;;;;;;;;;;15.18;75.22;101552.88;7361133;19;19950;-65
2023/12/18 07:28:27;;;;;;;;;;;;;;;15.17;75.62;101553.78;7362592;19;19914;-65
2023/12/18 07:30:52;;;;;;;;;;;;;;;15.14;75.31;101559.13;7359885;19;19917;-65
2023/12/18 07:33:17;;;;;;;;;;;;;;;15.13;75.72;101533.72;7366105;19;20212;-66
2023/12/18 07:35:43;;;;;;;;;;;;;;;15.12;75.50;101554.81;7366512;19;19945;-66
2023/12/18 07:38:08;;;;;;;;;;;;;;;15.10;75.39;101546.09;7357592;19;19929;-66
2023/12/18 07:40:34;;;;;;;;;;;;;;;15.07;75.78;101541.78;7356829;19;20021;-65
2023/12/18 07:42:59;;;;;;;;;;;;;;;15.03;75.82;101535.75;7361021;19;20580;-65
2023/12/18 07:45:24;;;;;;;;;;;;;;;15.01;75.72;101536.72;7369762;19;19927;-66
2023/12/18 07:47:49;;;;;;;;;;;;;;;15.00;76.03;101529.69;7355297;19;19919;-65
2023/12/18 07:50:15;;;;;;;;;;;;;;;14.94;75.80;101520.22;7359140;19;19929;-66
2023/12/18 07:52:40;;;;;;;;;;;;;;;14.96;75.80;101520.19;7353904;19;19926;-66
2023/12/18 07:55:05;;;;;;;;;;;;;;;14.96;75.92;101530.72;7360877;19;19930;-66
2023/12/18 07:57:31;;;;;;;;;;;;;;;14.95;75.91;101531.59;7359965;19;20466;-66
2023/12/18 07:59:56;;;;;;;;;;;;;;;14.93;75.99;101522.91;7361183;19;20500;-66
2023/12/18 08:02:21;;;;;;;;;;;;;;;14.91;75.92;101515.06;7355675;19;19919;-65
2023/12/18 08:04:46;;;;;;;;;;;;;;;14.92;76.16;101526.44;7352812;19;20379;-66
2023/12/18 08:07:12;;;;;;;;;;;;;;;14.89;76.26;101534.41;7362755;19;19917;-65
2023/12/18 08:09:37;;;;;;;;;;;;;;;14.89;75.79;101534.41;7360616;19;19915;-66
2023/12/18 08:12:02;;;;;;;;;;;;;;;14.88;76.18;101536.16;7358799;19;19926;-65
2023/12/18 08:14:28;;;;;;;;;;;;;;;14.88;76.39;101556.34;7363819;19;19918;-66
2023/12/18 08:16:53;;;;;;;;;;;;;;;14.87;75.91;101571.25;7354115;19;19915;-66
2023/12/18 08:19:18;;;;;;;;;;;;;;;14.88;75.94;101569.50;7354207;19;19927;-65
2023/12/18 08:21:44;;;;;;;;;;;;;;;14.87;76.18;101576.53;7366836;19;19939;-66
2023/12/18 08:24:09;;;;;;;;;;;;;;;14.86;76.07;101566.91;7363166;19;19939;-66
2023/12/18 08:26:35;;;;;;;;;;;;;;;14.88;76.51;101565.09;7360421;19;19919;-66
2023/12/18 08:29:00;;;;;;;;;;;;;;;14.88;76.08;101570.34;7359523;19;19951;-66
2023/12/18 08:31:26;;;;;;;;;;;;;;;14.88;76.60;101561.59;7361970;19;20009;-66
2023/12/18 08:33:51;;;;;;;;;;;;;;;14.86;76.27;101558.16;7357028;19;20651;-65
2023/12/18 08:36:17;;;;;;;;;;;;;;;14.87;76.45;101562.50;7368536;19;19919;-65
2023/12/18 08:38:42;;;;;;;;;;;;;;;14.86;76.43;101564.28;7366983;19;19937;-65
2023/12/18 08:41:07;;;;;;;;;;;;;;;14.85;76.04;101573.09;7357154;19;19916;-64
2023/12/18 08:43:32;;;;;;;;;;;;;;;14.82;76.35;101562.63;7367587;19;19982;-64
2023/12/18 08:45:58;;;;;;;;;;;;;;;14.81;76.37;101565.31;7363370;19;20686;-64
2023/12/18 08:48:23;;;;;;;;;;;;;;;14.79;76.08;101573.22;7369084;19;19925;-64
2023/12/18 08:50:48;;;;;;;;;;;;;;;14.75;76.47;101561.94;7365566;19;19940;-64
2023/12/18 08:53:14;;;;;;;;;;;;;;;14.72;76.17;101572.53;7364552;19;19943;-63
2023/12/18 08:55:39;;;;;;;;;;;;;;;14.71;76.32;101554.16;7363513;19;19928;-64
2023/12/18 08:58:08;;;;;;;;;;;;;;;14.69;76.55;101564.72;7350457;19;19918;-64
2023/12/18 09:00:34;;;;;;;;;;;;;;;14.68;76.21;101562.13;7349531;19;19919;-64
2023/12/18 09:02:59;;;;;;;;;;;;;;;14.66;76.55;101562.19;7362806;19;19922;-64
2023/12/18 09:05:24;;;;;;;;;;;;;;;14.65;76.74;101560.47;7369761;19;19918;-64
2023/12/18 09:07:50;;;;;;;;;;;;;;;14.65;76.75;101560.47;7371168;19;20417;-64
2023/12/18 09:10:17;;;;;;;;;;;;;;;14.65;76.53;101555.19;7371738;19;19911;-64
2023/12/18 09:12:43;;;;;;;;;;;;;;;14.65;76.59;101555.19;7366086;19;19950;-64
2023/12/18 09:15:08;;;;;;;;;;;;;;;14.66;77.02;101550.81;7366636;19;20531;-65
2023/12/18 09:17:34;;;;;;;;;;;;;;;14.64;76.87;101548.19;7371896;19;19915;-64
2023/12/18 09:20:00;;;;;;;;;;;;;;;14.65;76.98;101549.94;7363259;19;20581;-65
2023/12/18 09:22:25;;;;;;;;;;;;;;;14.65;76.74;101541.16;7369701;19;20300;-65
2023/12/18 09:24:50;;;;;;;;;;;;;;;14.65;77.16;101517.50;7362891;19;20320;-65
2023/12/18 09:27:15;;;;;;;;;;;;;;;14.65;76.77;101507.88;7369859;19;19919;-65
2023/12/18 09:29:41;;;;;;;;;;;;;;;14.65;77.25;101500.00;7376509;19;19918;-65
2023/12/18 09:32:07;;;;;;;;;;;;;;;14.65;77.17;101522.75;7363319;19;19926;-65
2023/12/18 09:34:33;;;;;;;;;;;;;;;14.66;77.05;101509.59;7363095;19;19931;-65
2023/12/18 09:36:58;;;;;;;;;;;;;;;14.66;77.12;101499.09;7360462;19;19911;-65
2023/12/18 09:39:23;;;;;;;;;;;;;;;14.67;77.05;101506.06;7365666;19;19929;-65
2023/12/18 09:41:48;;;;;;;;;;;;;;;14.69;77.37;101495.50;7362466;19;19919;-65
2023/12/18 09:44:14;;;;;;;;;;;;;;;14.68;77.59;101499.91;7363892;19;20410;-65
2023/12/18 09:46:39;;;;;;;;;;;;;;;14.70;77.43;101492.84;7362920;19;20231;-66
2023/12/18 09:49:04;;;;;;;;;;;;;;;14.71;77.41;101497.19;7365523;19;19914;-65
2023/12/18 09:51:30;;;;;;;;;;;;;;;14.73;77.38;101495.38;7360277;19;19927;-65
2023/12/18 09:53:55;;;;;;;;;;;;;;;14.73;77.36;101511.16;7360383;19;19907;-65
2023/12/18 09:56:21;;;;;;;;;;;;;;;14.74;77.62;101507.59;7364182;19;19931;-65
2023/12/18 09:58:47;;;;;;;;;;;;;;;14.76;77.52;101515.47;7366060;19;20985;-65
2023/12/18 10:01:13;;;;;;;;;;;;;;;14.77;77.80;101496.16;7367629;19;19927;-65
2023/12/18 10:03:38;;;;;;;;;;;;;;;14.78;77.58;101508.41;7361686;19;20724;-65
2023/12/18 10:06:04;;;;;;;;;;;;;;;14.81;78.10;101512.72;7365124;19;20006;-65
2023/12/18 10:08:30;;;;;;;;;;;;;;;14.82;77.77;101509.19;7367261;19;20395;-65
2023/12/18 10:10:55;;;;;;;;;;;;;;;14.84;77.94;101515.25;7367223;19;19919;-65
2023/12/18 10:13:20;;;;;;;;;;;;;;;14.85;77.72;101527.50;7365193;19;19927;-65
2023/12/18 10:15:46;;;;;;;;;;;;;;;14.88;78.16;101524.78;7357653;19;20544;-65
2023/12/18 10:18:11;;;;;;;;;;;;;;;14.91;78.27;101530.84;7364700;19;19928;-65
2023/12/18 10:20:38;;;;;;;;;;;;;;;14.93;78.41;101522.91;7362102;19;19919;-66
2023/12/18 10:23:07;;;;;;;;;;;;;;;14.96;78.31;101522.81;7360777;19;19926;-65
2023/12/18 10:25:34;;;;;;;;;;;;;;;14.98;78.26;101526.25;7361788;19;19938;-66
2023/12/18 10:27:59;;;;;;;;;;;;;;;14.98;78.03;101515.75;7361361;19;19935;-66
2023/12/18 10:30:29;;;;;;;;;;;;;;;15.02;78.03;101527.91;7363796;19;19927;-65
2023/12/18 10:32:55;;;;;;;;;;;;;;;15.02;78.23;101522.66;7363318;19;19926;-66
2023/12/18 10:35:23;;;;;;;;;;;;;;;15.03;77.81;101524.38;7364342;19;19910;-65
2023/12/18 10:37:52;;;;;;;;;;;;;;;15.06;78.02;101529.56;7361501;19;20622;-65
2023/12/18 10:40:22;;;;;;;;;;;;;;;15.10;78.21;101525.91;7358221;19;19907;-66
2023/12/18 10:43:06;;;;;;;;;;;;;;;15.13;77.87;101530.22;7364833;19;19935;-65
2023/12/18 10:45:33;;;;;;;;;;;;;;;15.14;78.32;101524.91;7359690;19;20800;-65
2023/12/18 10:47:59;;;;;;;;;;;;;;;15.15;77.80;101524.00;7363211;19;19936;-66
2023/12/18 10:50:26;;;;;;;;;;;;;;;15.17;78.14;101523.97;7358827;19;19923;-65
2023/12/18 10:52:51;;;;;;;;;;;;;;;15.18;78.05;101523.94;7360291;19;19919;-65
2023/12/18 10:55:20;;;;;;;;;;;;;;;15.19;77.93;101524.78;7357404;19;20317;-65
2023/12/18 10:57:48;;;;;;;;;;;;;;;15.18;77.94;101512.53;7361794;19;19915;-65
2023/12/18 11:00:15;;;;;;;;;;;;;;;15.18;77.81;101509.91;7366877;19;19919;-65
2023/12/18 11:02:41;;;;;;;;;;;;;;;15.17;77.66;101516.94;7370622;19;19923;-66
2023/12/18 11:05:06;;;;;;;;;;;;;;;15.17;77.73;101516.94;7362409;19;19928;-65
2023/12/18 11:07:32;;;;;;;;;;;;;;;15.18;77.65;101530.97;7368816;19;19931;-66
2023/12/18 11:09:58;;;;;;;;;;;;;;;15.17;77.63;101526.63;7362899;19;19913;-65
2023/12/18 11:12:24;;;;;;;;;;;;;;;15.16;77.72;101525.75;7358058;19;20809;-65
2023/12/18 11:14:50;;;;;;;;;;;;;;;15.17;77.67;101527.47;7368467;19;20607;-66
2023/12/18 11:17:33;;;;;;;;;;;;;;;15.18;78.04;101529.19;7355103;19;19919;-65
2023/12/18 11:19:59;;;;;;;;;;;;;;;15.19;77.98;101528.28;7362431;19;19919;-65
2023/12/18 11:22:41;;;;;;;;;;;;;;;15.20;77.94;101527.38;7362149;19;19918;-65
2023/12/18 11:25:07;;;;;;;;;;;;;;;15.21;77.92;101523.00;7363656;19;19911;-65
2023/12/18 11:27:33;;;;;;;;;;;;;;;15.20;77.59;101527.38;7354784;19;20057;-65
2023/12/18 11:29:58;;;;;;;;;;;;;;;15.20;77.65;101516.84;7363429;19;19947;-65
2023/12/18 11:32:43;;;;;;;;;;;;;;;15.20;77.88;101516.84;7352171;19;19922;-65
2023/12/18 11:35:09;;;;;;;;;;;;;;;15.21;78.09;101518.59;7362530;19;20551;-65
2023/12/18 11:37:41;;;;;;;;;;;;;;;15.21;78.15;101497.53;7360164;19;19914;-65
2023/12/18 11:40:26;;;;;;;;;;;;;;;15.21;77.93;101508.06;7361703;19;19947;-65
2023/12/18 11:42:52;;;;;;;;;;;;;;;15.20;77.78;101495.78;7357651;19;19918;-65
2023/12/18 11:45:19;;;;;;;;;;;;;;;15.21;77.91;101484.38;7359700;19;19940;-65
2023/12/18 11:47:45;;;;;;;;;;;;;;;15.20;78.12;101485.25;7363386;19;19930;-65
2023/12/18 11:50:10;;;;;;;;;;;;;;;15.21;77.81;101487.03;7353884;19;20627;-65
2023/12/18 11:52:35;;;;;;;;;;;;;;;15.20;78.14;101493.16;7357473;19;19931;-65
2023/12/18 11:55:01;;;;;;;;;;;;;;;15.22;78.25;101488.75;7358671;19;20344;-65
2023/12/18 11:57:26;;;;;;;;;;;;;;;15.23;77.80;101495.72;7364203;19;19923;-66
2023/12/18 11:59:52;;;;;;;;;;;;;;;15.24;78.01;101486.06;7359758;19;20593;-65
2023/12/18 12:02:18;;;;;;;;;;;;;;;15.25;77.86;101486.00;7362589;19;19998;-65
2023/12/18 12:04:43;;;;;;;;;;;;;;;15.28;78.42;101485.91;7360631;19;20012;-65
2023/12/18 12:07:11;;;;;;;;;;;;;;;15.29;78.11;101482.38;7361603;19;19923;-65
2023/12/18 12:09:36;;;;;;;;;;;;;;;15.32;78.07;101471.75;7363494;19;19939;-65
2023/12/18 12:12:02;;;;;;;;;;;;;;;15.35;78.09;101480.47;7367383;19;19922;-65
2023/12/18 12:14:28;;;;;;;;;;;;;;;15.36;78.18;101485.72;7367434;19;19930;-65
2023/12/18 12:17:05;;;;;;;;;;;;;;;15.38;78.02;101473.34;7368826;19;19926;-65
2023/12/18 12:19:36;;;;;;;;;;;;;;;15.39;78.20;101490.84;7336900;19;20345;-65
2023/12/18 12:22:01;;;;;;;;;;;;;;;15.41;77.92;101485.53;7365511;19;20353;-65
2023/12/18 12:24:27;;;;;;;;;;;;;;;15.41;77.93;101480.28;7366484;19;19917;-65
2023/12/18 12:26:52;;;;;;;;;;;;;;;15.42;78.13;101480.25;7365630;19;19918;-66
2023/12/18 12:29:17;;;;;;;;;;;;;;;15.42;77.86;101479.38;7365890;19;19922;-65